createdAt,value
2018-12-27T00:01:08.393Z,59.80
2018-12-27T00:03:36.986Z,59.70
2018-12-27T00:06:05.558Z,59.70
2018-12-27T00:08:34.143Z,59.70
2018-12-27T00:11:05.488Z,59.80
2018-12-27T00:13:34.079Z,59.60
2018-12-27T00:16:02.639Z,59.60
2018-12-27T00:18:31.271Z,60.20
2018-12-27T00:21:00.072Z,59.70
2018-12-27T00:23:28.651Z,59.70
2018-12-27T00:26:09.919Z,59.60
2018-12-27T00:28:38.974Z,59.60
2018-12-27T00:31:08.160Z,59.50
2018-12-27T00:33:37.082Z,59.70
2018-12-27T00:36:06.242Z,59.70
2018-12-27T00:38:35.170Z,59.60
2018-12-27T00:41:04.067Z,59.60
2018-12-27T00:43:52.423Z,59.70
2018-12-27T00:46:21.575Z,59.70
2018-12-27T00:48:50.735Z,59.70
2018-12-27T00:51:19.875Z,59.80
2018-12-27T00:53:48.825Z,59.70
2018-12-27T00:56:17.974Z,59.60
2018-12-27T00:58:47.410Z,59.70
2018-12-27T01:01:36.012Z,59.70
2018-12-27T01:04:05.443Z,59.70
2018-12-27T01:06:34.344Z,59.70
2018-12-27T01:09:03.604Z,59.60
2018-12-27T01:11:51.925Z,59.70
2018-12-27T01:14:20.839Z,59.60
2018-12-27T01:16:49.760Z,59.60
2018-12-27T01:19:18.668Z,59.70
2018-12-27T01:21:47.826Z,59.80
2018-12-27T01:24:16.988Z,59.70
2018-12-27T01:26:45.939Z,59.80
2018-12-27T01:29:15.087Z,59.80
2018-12-27T01:31:50.477Z,59.70
2018-12-27T01:34:14.643Z,59.80
2018-12-27T01:36:43.812Z,59.80
2018-12-27T01:39:13.023Z,59.80
2018-12-27T01:41:41.947Z,59.70
2018-12-27T10:35:58.411Z,59.20
2018-12-27T10:38:26.975Z,59.20
2018-12-27T10:40:55.795Z,59.30
2018-12-27T10:43:24.847Z,59.20
2018-12-27T10:45:53.447Z,59.00
2018-12-27T10:48:41.356Z,59.10
2018-12-27T10:51:10.199Z,59.10
2018-12-27T10:53:39.016Z,59.00
2018-12-27T10:56:07.839Z,59.10
2018-12-27T10:58:36.906Z,59.10
2018-12-27T11:01:05.736Z,59.10
2018-12-27T11:03:34.330Z,59.20
